sensor_id;sensor_type;location;lat;lon;timestamp;temperature;humidity
3614;DHT22;1821;50.936;6.854;2023-03-14T00:00:52;10.70;99.90
3614;DHT22;1821;50.936;6.854;2023-03-14T00:01:34;10.40;99.90
3614;DHT22;1821;50.936;6.854;2023-03-14T00:02:19;10.50;99.90
3614;DHT22;1821;50.936;6.854;2023-03-14T00:03:01;10.70;99.90
3614;DHT22;1821;50.936;6.854;2023-03-14T00:03:43;10.60;99.90
3614;DHT22;1821;50.936;6.854;2023-03-14T00:04:25;10.50;99.90
3614;DHT22;1821;50.936;6.854;2023-03-14T00:05:08;10.70;99.90
3614;DHT22;1821;50.936;6.854;2023-03-14T00:06:34;10.30;99.90
3614;DHT22;1821;50.936;6.854;2023-03-14T00:07:16;10.10;99.90
3614;DHT22;1821;50.936;6.854;2023-03-14T00:07:58;10.40;99.90
3614;DHT22;1821;50.936;6.854;2023-03-14T00:08:41;9.90;99.90
3614;DHT22;1821;50.936;6.854;2023-03-14T00:09:24;10.20;99.90
3614;DHT22;1821;50.936;6.854;2023-03-14T00:10:11;10.30;99.90
3614;DHT22;1821;50.936;6.854;2023-03-14T00:10:54;9.90;99.90
3614;DHT22;1821;50.936;6.854;2023-03-14T00:11:36;10.40;99.90
3614;DHT22;1821;50.936;6.854;2023-03-14T00:12:18;10.20;99.90
3614;DHT22;1821;50.936;6.854;2023-03-14T00:13:00;10.40;99.90
3614;DHT22;1821;50.936;6.854;2023-03-14T00:13:42;10.20;99.90
3614;DHT22;1821;50.936;6.854;2023-03-14T00:15:49;10.50;99.90
3614;DHT22;1821;50.936;6.854;2023-03-14T00:16:31;10.40;99.90
3614;DHT22;1821;50.936;6.854;2023-03-14T00:17:57;10.30;99.90
3614;DHT22;1821;50.936;6.854;2023-03-14T00:18:41;10.40;99.90
3614;DHT22;1821;50.936;6.854;2023-03-14T00:19:23;10.10;99.90
3614;DHT22;1821;50.936;6.854;2023-03-14T00:20:06;10.30;99.90
3614;DHT22;1821;50.936;6.854;2023-03-14T00:20:52;10.20;99.90
3614;DHT22;1821;50.936;6.854;2023-03-14T00:22:16;10.40;99.90
3614;DHT22;1821;50.936;6.854;2023-03-14T00:22:58;10.20;99.90
3614;DHT22;1821;50.936;6.854;2023-03-14T00:23:42;10.60;99.90
3614;DHT22;1821;50.936;6.854;2023-03-14T00:24:24;10.50;99.90
3614;DHT22;1821;50.936;6.854;2023-03-14T00:25:08;10.70;99.90
3614;DHT22;1821;50.936;6.854;2023-03-14T00:25:50;10.80;99.90
3614;DHT22;1821;50.936;6.854;2023-03-14T00:26:32;10.80;99.90
3614;DHT22;1821;50.936;6.854;2023-03-14T00:27:14;10.70;99.90
3614;DHT22;1821;50.936;6.854;2023-03-14T00:27:56;10.50;99.90
3614;DHT22;1821;50.936;6.854;2023-03-14T00:28:38;10.80;99.90
3614;DHT22;1821;50.936;6.854;2023-03-14T00:29:20;10.70;99.90
3614;DHT22;1821;50.936;6.854;2023-03-14T00:30:03;10.80;99.90
3614;DHT22;1821;50.936;6.854;2023-03-14T00:31:33;10.70;99.90
3614;DHT22;1821;50.936;6.854;2023-03-14T00:32:17;11.10;99.90
3614;DHT22;1821;50.936;6.854;2023-03-14T00:32:59;10.50;99.90
3614;DHT22;1821;50.936;6.854;2023-03-14T00:33:44;10.50;99.90
3614;DHT22;1821;50.936;6.854;2023-03-14T00:34:30;10.80;99.90
3614;DHT22;1821;50.936;6.854;2023-03-14T00:35:58;10.80;99.90
3614;DHT22;1821;50.936;6.854;2023-03-14T00:36:41;11.20;99.90
3614;DHT22;1821;50.936;6.854;2023-03-14T00:38:49;10.30;99.90
3614;DHT22;1821;50.936;6.854;2023-03-14T00:40:16;11.20;99.90
3614;DHT22;1821;50.936;6.854;2023-03-14T00:40:58;11.00;99.90
3614;DHT22;1821;50.936;6.854;2023-03-14T00:41:40;11.00;99.90
3614;DHT22;1821;50.936;6.854;2023-03-14T00:42:22;10.80;99.90
3614;DHT22;1821;50.936;6.854;2023-03-14T00:43:07;11.00;99.90
3614;DHT22;1821;50.936;6.854;2023-03-14T00:44:33;11.00;99.90
3614;DHT22;1821;50.936;6.854;2023-03-14T00:45:14;10.80;99.90
3614;DHT22;1821;50.936;6.854;2023-03-14T00:45:56;11.20;99.90
3614;DHT22;1821;50.936;6.854;2023-03-14T00:46:39;11.20;99.90
3614;DHT22;1821;50.936;6.854;2023-03-14T00:47:21;11.40;99.90
3614;DHT22;1821;50.936;6.854;2023-03-14T00:48:04;11.20;99.90
3614;DHT22;1821;50.936;6.854;2023-03-14T00:48:46;11.40;99.90
3614;DHT22;1821;50.936;6.854;2023-03-14T00:49:28;11.10;99.90
3614;DHT22;1821;50.936;6.854;2023-03-14T00:50:11;11.10;99.90
3614;DHT22;1821;50.936;6.854;2023-03-14T00:50:53;11.00;99.90
3614;DHT22;1821;50.936;6.854;2023-03-14T00:51:34;11.30;99.90
3614;DHT22;1821;50.936;6.854;2023-03-14T00:53:01;11.30;99.90
3614;DHT22;1821;50.936;6.854;2023-03-14T00:54:25;11.00;99.90
3614;DHT22;1821;50.936;6.854;2023-03-14T00:55:08;11.10;99.90
3614;DHT22;1821;50.936;6.854;2023-03-14T00:56:32;11.10;99.90
3614;DHT22;1821;50.936;6.854;2023-03-14T00:58:41;11.10;99.90
3614;DHT22;1821;50.936;6.854;2023-03-14T00:59:23;11.10;99.90
3614;DHT22;1821;50.936;6.854;2023-03-14T01:00:06;11.30;99.90
3614;DHT22;1821;50.936;6.854;2023-03-14T01:00:49;11.10;99.90
3614;DHT22;1821;50.936;6.854;2023-03-14T01:02:16;11.00;99.90
3614;DHT22;1821;50.936;6.854;2023-03-14T01:02:58;11.10;99.90
3614;DHT22;1821;50.936;6.854;2023-03-14T01:03:40;11.10;99.90
3614;DHT22;1821;50.936;6.854;2023-03-14T01:04:22;11.30;99.90
3614;DHT22;1821;50.936;6.854;2023-03-14T01:05:04;10.90;99.90
3614;DHT22;1821;50.936;6.854;2023-03-14T01:05:46;11.10;99.90
3614;DHT22;1821;50.936;6.854;2023-03-14T01:06:29;11.40;99.90
3614;DHT22;1821;50.936;6.854;2023-03-14T01:09:18;11.20;99.90
3614;DHT22;1821;50.936;6.854;2023-03-14T01:10:00;11.00;99.90
3614;DHT22;1821;50.936;6.854;2023-03-14T01:10:44;10.70;99.90
3614;DHT22;1821;50.936;6.854;2023-03-14T01:11:29;10.70;99.90
3614;DHT22;1821;50.936;6.854;2023-03-14T01:12:11;11.30;99.90
3614;DHT22;1821;50.936;6.854;2023-03-14T01:12:53;10.40;99.90
3614;DHT22;1821;50.936;6.854;2023-03-14T01:13:36;10.90;99.90
3614;DHT22;1821;50.936;6.854;2023-03-14T01:14:18;10.90;1.00
3614;DHT22;1821;50.936;6.854;2023-03-14T01:14:59;10.40;1.00
3614;DHT22;1821;50.936;6.854;2023-03-14T01:16:27;10.60;99.90
3614;DHT22;1821;50.936;6.854;2023-03-14T01:17:52;10.20;99.90
3614;DHT22;1821;50.936;6.854;2023-03-14T01:20:46;10.20;99.90
3614;DHT22;1821;50.936;6.854;2023-03-14T01:21:30;9.60;99.90
3614;DHT22;1821;50.936;6.854;2023-03-14T01:22:13;9.80;99.90
3614;DHT22;1821;50.936;6.854;2023-03-14T01:22:55;9.80;99.90
3614;DHT22;1821;50.936;6.854;2023-03-14T01:23:37;9.60;99.90
3614;DHT22;1821;50.936;6.854;2023-03-14T01:24:18;10.10;99.90
3614;DHT22;1821;50.936;6.854;2023-03-14T01:25:00;9.80;99.90
3614;DHT22;1821;50.936;6.854;2023-03-14T01:25:43;9.60;99.90
3614;DHT22;1821;50.936;6.854;2023-03-14T01:26:26;10.10;99.90
3614;DHT22;1821;50.936;6.854;2023-03-14T01:27:08;9.60;99.90
3614;DHT22;1821;50.936;6.854;2023-03-14T01:27:51;9.90;99.90
3614;DHT22;1821;50.936;6.854;2023-03-14T01:28:34;9.50;99.90
3614;DHT22;1821;50.936;6.854;2023-03-14T01:29:16;9.80;99.90
3614;DHT22;1821;50.936;6.854;2023-03-14T01:29:58;9.70;99.90
3614;DHT22;1821;50.936;6.854;2023-03-14T01:30:40;9.50;99.90
3614;DHT22;1821;50.936;6.854;2023-03-14T01:32:49;9.80;99.90
3614;DHT22;1821;50.936;6.854;2023-03-14T01:33:32;9.50;99.90
3614;DHT22;1821;50.936;6.854;2023-03-14T01:34:14;10.00;99.90
3614;DHT22;1821;50.936;6.854;2023-03-14T01:34:56;9.40;99.90
3614;DHT22;1821;50.936;6.854;2023-03-14T01:35:38;9.80;99.90
3614;DHT22;1821;50.936;6.854;2023-03-14T01:36:20;9.50;99.90
3614;DHT22;1821;50.936;6.854;2023-03-14T01:37:02;9.60;99.90
3614;DHT22;1821;50.936;6.854;2023-03-14T01:37:43;9.40;99.90
3614;DHT22;1821;50.936;6.854;2023-03-14T01:38:25;9.40;99.90
3614;DHT22;1821;50.936;6.854;2023-03-14T01:39:07;9.70;99.90
3614;DHT22;1821;50.936;6.854;2023-03-14T01:39:50;9.80;99.90
3614;DHT22;1821;50.936;6.854;2023-03-14T01:40:32;9.90;99.90
3614;DHT22;1821;50.936;6.854;2023-03-14T01:41:17;9.50;99.90
3614;DHT22;1821;50.936;6.854;2023-03-14T01:42:00;9.70;99.90
3614;DHT22;1821;50.936;6.854;2023-03-14T01:42:56;9.50;99.90
3614;DHT22;1821;50.936;6.854;2023-03-14T01:43:38;9.90;99.90
3614;DHT22;1821;50.936;6.854;2023-03-14T01:44:20;9.30;99.90
3614;DHT22;1821;50.936;6.854;2023-03-14T01:45:02;9.80;99.90
3614;DHT22;1821;50.936;6.854;2023-03-14T01:46:47;9.40;99.90
3614;DHT22;1821;50.936;6.854;2023-03-14T01:47:32;9.90;99.90
3614;DHT22;1821;50.936;6.854;2023-03-14T01:48:14;9.90;99.90
3614;DHT22;1821;50.936;6.854;2023-03-14T01:50:06;9.70;99.90
3614;DHT22;1821;50.936;6.854;2023-03-14T01:50:49;9.50;99.90
3614;DHT22;1821;50.936;6.854;2023-03-14T01:52:31;9.70;99.90
3614;DHT22;1821;50.936;6.854;2023-03-14T01:54:19;9.70;99.90
3614;DHT22;1821;50.936;6.854;2023-03-14T01:55:06;9.30;99.90
3614;DHT22;1821;50.936;6.854;2023-03-14T01:56:35;9.70;98.50
3614;DHT22;1821;50.936;6.854;2023-03-14T01:57:40;9.60;96.10
3614;DHT22;1821;50.936;6.854;2023-03-14T01:59:06;9.60;61.50
3614;DHT22;1821;50.936;6.854;2023-03-14T02:00:40;9.30;45.70
3614;DHT22;1821;50.936;6.854;2023-03-14T02:01:25;9.10;49.60
3614;DHT22;1821;50.936;6.854;2023-03-14T02:02:10;9.30;39.60
3614;DHT22;1821;50.936;6.854;2023-03-14T02:02:56;9.50;29.50
3614;DHT22;1821;50.936;6.854;2023-03-14T02:03:56;9.30;26.10
3614;DHT22;1821;50.936;6.854;2023-03-14T02:04:41;8.90;38.80
3614;DHT22;1821;50.936;6.854;2023-03-14T02:05:28;8.90;57.00
3614;DHT22;1821;50.936;6.854;2023-03-14T02:06:11;9.50;90.80
3614;DHT22;1821;50.936;6.854;2023-03-14T02:08:00;9.50;74.70
3614;DHT22;1821;50.936;6.854;2023-03-14T02:08:42;9.30;65.60
3614;DHT22;1821;50.936;6.854;2023-03-14T02:09:30;9.00;48.20
3614;DHT22;1821;50.936;6.854;2023-03-14T02:12:29;9.00;64.80
3614;DHT22;1821;50.936;6.854;2023-03-14T02:13:13;9.40;66.10
3614;DHT22;1821;50.936;6.854;2023-03-14T02:13:57;8.90;64.10
3614;DHT22;1821;50.936;6.854;2023-03-14T02:14:39;9.10;62.90
3614;DHT22;1821;50.936;6.854;2023-03-14T02:15:24;9.00;66.00
3614;DHT22;1821;50.936;6.854;2023-03-14T02:16:06;9.20;72.60
3614;DHT22;1821;50.936;6.854;2023-03-14T02:16:49;9.10;88.00
3614;DHT22;1821;50.936;6.854;2023-03-14T02:18:14;9.20;92.00
3614;DHT22;1821;50.936;6.854;2023-03-14T02:18:57;9.40;81.20
3614;DHT22;1821;50.936;6.854;2023-03-14T02:21:23;9.00;85.40
3614;DHT22;1821;50.936;6.854;2023-03-14T02:22:10;9.10;80.50
3614;DHT22;1821;50.936;6.854;2023-03-14T02:22:53;9.30;90.40
3614;DHT22;1821;50.936;6.854;2023-03-14T02:23:56;8.90;92.30
3614;DHT22;1821;50.936;6.854;2023-03-14T02:27:48;9.00;55.00
3614;DHT22;1821;50.936;6.854;2023-03-14T02:28:30;9.20;61.40
3614;DHT22;1821;50.936;6.854;2023-03-14T02:29:12;9.40;60.50
3614;DHT22;1821;50.936;6.854;2023-03-14T02:30:43;9.40;38.20
3614;DHT22;1821;50.936;6.854;2023-03-14T02:31:26;8.80;29.30
3614;DHT22;1821;50.936;6.854;2023-03-14T02:32:08;9.20;11.20
3614;DHT22;1821;50.936;6.854;2023-03-14T02:32:57;8.90;11.60
3614;DHT22;1821;50.936;6.854;2023-03-14T02:33:40;9.30;15.10
3614;DHT22;1821;50.936;6.854;2023-03-14T02:34:23;9.20;16.00
3614;DHT22;1821;50.936;6.854;2023-03-14T02:35:09;9.30;7.50
3614;DHT22;1821;50.936;6.854;2023-03-14T02:35:59;9.00;14.80
3614;DHT22;1821;50.936;6.854;2023-03-14T02:36:44;9.10;7.20
3614;DHT22;1821;50.936;6.854;2023-03-14T02:37:33;9.40;7.90
3614;DHT22;1821;50.936;6.854;2023-03-14T02:39:23;9.40;1.00
3614;DHT22;1821;50.936;6.854;2023-03-14T02:40:51;6.80;14.80
3614;DHT22;1821;50.936;6.854;2023-03-14T02:41:33;9.30;20.80
3614;DHT22;1821;50.936;6.854;2023-03-14T02:42:16;9.00;22.10
3614;DHT22;1821;50.936;6.854;2023-03-14T02:42:57;8.70;15.00
3614;DHT22;1821;50.936;6.854;2023-03-14T02:43:39;8.60;14.80
3614;DHT22;1821;50.936;6.854;2023-03-14T02:44:21;8.90;28.40
3614;DHT22;1821;50.936;6.854;2023-03-14T02:48:07;8.80;68.20
3614;DHT22;1821;50.936;6.854;2023-03-14T02:48:55;8.80;66.60
3614;DHT22;1821;50.936;6.854;2023-03-14T02:49:37;8.60;67.90
3614;DHT22;1821;50.936;6.854;2023-03-14T02:50:22;8.90;80.30
3614;DHT22;1821;50.936;6.854;2023-03-14T02:51:06;8.50;87.10
3614;DHT22;1821;50.936;6.854;2023-03-14T02:51:49;8.80;99.60
3614;DHT22;1821;50.936;6.854;2023-03-14T02:52:31;8.80;97.10
3614;DHT22;1821;50.936;6.854;2023-03-14T02:53:17;9.10;95.80
3614;DHT22;1821;50.936;6.854;2023-03-14T02:53:59;9.00;92.50
3614;DHT22;1821;50.936;6.854;2023-03-14T02:55:24;8.80;54.50
3614;DHT22;1821;50.936;6.854;2023-03-14T02:56:08;8.70;51.20
3614;DHT22;1821;50.936;6.854;2023-03-14T02:56:50;9.10;44.30
3614;DHT22;1821;50.936;6.854;2023-03-14T02:57:32;8.90;43.60
3614;DHT22;1821;50.936;6.854;2023-03-14T02:58:18;9.20;27.20
3614;DHT22;1821;50.936;6.854;2023-03-14T02:59:03;8.90;25.70
3614;DHT22;1821;50.936;6.854;2023-03-14T03:01:14;8.90;38.80
3614;DHT22;1821;50.936;6.854;2023-03-14T03:01:56;8.70;33.70
3614;DHT22;1821;50.936;6.854;2023-03-14T03:03:24;9.20;10.90
3614;DHT22;1821;50.936;6.854;2023-03-14T03:04:06;8.90;13.70
3614;DHT22;1821;50.936;6.854;2023-03-14T03:05:30;8.80;13.90
3614;DHT22;1821;50.936;6.854;2023-03-14T03:06:12;9.20;17.00
3614;DHT22;1821;50.936;6.854;2023-03-14T03:06:54;9.10;16.50
3614;DHT22;1821;50.936;6.854;2023-03-14T03:07:36;9.10;18.20
3614;DHT22;1821;50.936;6.854;2023-03-14T03:08:19;9.00;11.00
3614;DHT22;1821;50.936;6.854;2023-03-14T03:09:01;9.00;8.40
3614;DHT22;1821;50.936;6.854;2023-03-14T03:09:43;9.10;1.00
3614;DHT22;1821;50.936;6.854;2023-03-14T03:10:27;8.90;8.00
3614;DHT22;1821;50.936;6.854;2023-03-14T03:11:51;9.30;1.00
3614;DHT22;1821;50.936;6.854;2023-03-14T03:12:33;9.10;1.00
3614;DHT22;1821;50.936;6.854;2023-03-14T03:13:16;9.10;1.00
3614;DHT22;1821;50.936;6.854;2023-03-14T03:13:57;9.10;1.00
3614;DHT22;1821;50.936;6.854;2023-03-14T03:14:39;9.30;1.00
3614;DHT22;1821;50.936;6.854;2023-03-14T03:15:24;9.20;1.00
3614;DHT22;1821;50.936;6.854;2023-03-14T03:16:51;9.20;1.00
3614;DHT22;1821;50.936;6.854;2023-03-14T03:17:33;9.10;1.00
3614;DHT22;1821;50.936;6.854;2023-03-14T03:19:39;9.10;1.00
3614;DHT22;1821;50.936;6.854;2023-03-14T03:21:04;9.00;1.00
3614;DHT22;1821;50.936;6.854;2023-03-14T03:21:49;9.40;1.00
3614;DHT22;1821;50.936;6.854;2023-03-14T03:22:33;9.30;1.00
3614;DHT22;1821;50.936;6.854;2023-03-14T03:23:15;9.30;1.00
3614;DHT22;1821;50.936;6.854;2023-03-14T03:23:57;8.90;1.00
3614;DHT22;1821;50.936;6.854;2023-03-14T03:24:42;9.10;1.00
3614;DHT22;1821;50.936;6.854;2023-03-14T03:25:24;9.40;1.00
3614;DHT22;1821;50.936;6.854;2023-03-14T03:26:09;9.20;1.00
3614;DHT22;1821;50.936;6.854;2023-03-14T03:28:19;9.50;1.00
3614;DHT22;1821;50.936;6.854;2023-03-14T03:29:01;9.40;1.00
3614;DHT22;1821;50.936;6.854;2023-03-14T03:29:43;9.20;1.00
3614;DHT22;1821;50.936;6.854;2023-03-14T03:30:25;9.40;1.00
3614;DHT22;1821;50.936;6.854;2023-03-14T03:31:11;9.40;1.00
3614;DHT22;1821;50.936;6.854;2023-03-14T03:31:53;9.70;1.00
3614;DHT22;1821;50.936;6.854;2023-03-14T03:32:35;9.70;1.00
3614;DHT22;1821;50.936;6.854;2023-03-14T03:33:17;9.50;1.00
3614;DHT22;1821;50.936;6.854;2023-03-14T03:33:59;9.20;1.00
3614;DHT22;1821;50.936;6.854;2023-03-14T03:34:41;9.30;1.00
3614;DHT22;1821;50.936;6.854;2023-03-14T03:35:23;9.40;1.00
3614;DHT22;1821;50.936;6.854;2023-03-14T03:36:05;9.60;1.00
3614;DHT22;1821;50.936;6.854;2023-03-14T03:36:49;9.80;1.00
3614;DHT22;1821;50.936;6.854;2023-03-14T03:37:34;9.60;1.00
3614;DHT22;1821;50.936;6.854;2023-03-14T03:38:16;9.30;1.00
3614;DHT22;1821;50.936;6.854;2023-03-14T03:38:58;9.40;1.00
3614;DHT22;1821;50.936;6.854;2023-03-14T03:39:40;9.80;1.00
3614;DHT22;1821;50.936;6.854;2023-03-14T03:40:22;9.50;1.00
3614;DHT22;1821;50.936;6.854;2023-03-14T03:41:05;9.50;1.00
3614;DHT22;1821;50.936;6.854;2023-03-14T03:41:47;9.60;99.90
3614;DHT22;1821;50.936;6.854;2023-03-14T03:42:33;9.80;1.00
3614;DHT22;1821;50.936;6.854;2023-03-14T03:43:15;9.50;1.00
3614;DHT22;1821;50.936;6.854;2023-03-14T03:43:57;9.60;1.00
3614;DHT22;1821;50.936;6.854;2023-03-14T03:44:39;9.60;1.00
3614;DHT22;1821;50.936;6.854;2023-03-14T03:45:23;9.60;1.00
3614;DHT22;1821;50.936;6.854;2023-03-14T03:46:06;9.40;1.00
3614;DHT22;1821;50.936;6.854;2023-03-14T03:46:48;9.40;1.00
3614;DHT22;1821;50.936;6.854;2023-03-14T03:48:13;9.30;1.00
3614;DHT22;1821;50.936;6.854;2023-03-14T03:48:56;9.40;1.00
3614;DHT22;1821;50.936;6.854;2023-03-14T03:49:38;9.20;1.00
3614;DHT22;1821;50.936;6.854;2023-03-14T03:51:03;9.30;99.90
3614;DHT22;1821;50.936;6.854;2023-03-14T03:51:45;9.60;99.90
3614;DHT22;1821;50.936;6.854;2023-03-14T03:52:27;9.40;99.90
3614;DHT22;1821;50.936;6.854;2023-03-14T03:53:09;9.50;99.90
3614;DHT22;1821;50.936;6.854;2023-03-14T03:53:52;9.60;99.90
3614;DHT22;1821;50.936;6.854;2023-03-14T03:54:36;9.50;99.90
3614;DHT22;1821;50.936;6.854;2023-03-14T03:55:18;9.60;99.90
3614;DHT22;1821;50.936;6.854;2023-03-14T03:56:01;9.80;99.90
3614;DHT22;1821;50.936;6.854;2023-03-14T03:56:43;9.80;99.90
3614;DHT22;1821;50.936;6.854;2023-03-14T03:58:51;9.80;99.90
3614;DHT22;1821;50.936;6.854;2023-03-14T04:00:58;9.50;99.90
3614;DHT22;1821;50.936;6.854;2023-03-14T04:01:40;9.80;99.90
3614;DHT22;1821;50.936;6.854;2023-03-14T04:02:22;10.00;99.90
3614;DHT22;1821;50.936;6.854;2023-03-14T04:03:05;9.90;99.90
3614;DHT22;1821;50.936;6.854;2023-03-14T04:03:49;10.00;99.90
3614;DHT22;1821;50.936;6.854;2023-03-14T04:05:17;9.80;99.90
3614;DHT22;1821;50.936;6.854;2023-03-14T04:06:04;10.00;99.90
3614;DHT22;1821;50.936;6.854;2023-03-14T04:06:49;9.50;99.90
3614;DHT22;1821;50.936;6.854;2023-03-14T04:07:34;10.00;99.90
3614;DHT22;1821;50.936;6.854;2023-03-14T04:08:19;10.00;99.90
3614;DHT22;1821;50.936;6.854;2023-03-14T04:09:00;9.70;1.00
3614;DHT22;1821;50.936;6.854;2023-03-14T04:09:43;9.60;1.00
3614;DHT22;1821;50.936;6.854;2023-03-14T04:10:27;9.80;1.00
3614;DHT22;1821;50.936;6.854;2023-03-14T04:11:12;9.40;1.00
3614;DHT22;1821;50.936;6.854;2023-03-14T04:11:53;9.30;1.00
3614;DHT22;1821;50.936;6.854;2023-03-14T04:13:18;9.80;1.00
3614;DHT22;1821;50.936;6.854;2023-03-14T04:14:01;9.30;1.00
3614;DHT22;1821;50.936;6.854;2023-03-14T04:16:15;9.50;1.00
3614;DHT22;1821;50.936;6.854;2023-03-14T04:17:02;9.50;1.00
3614;DHT22;1821;50.936;6.854;2023-03-14T04:17:46;9.40;1.00
3614;DHT22;1821;50.936;6.854;2023-03-14T04:18:28;9.60;1.00
3614;DHT22;1821;50.936;6.854;2023-03-14T04:19:11;9.40;1.00
3614;DHT22;1821;50.936;6.854;2023-03-14T04:21:18;9.30;1.00
3614;DHT22;1821;50.936;6.854;2023-03-14T04:22:00;9.50;1.00
3614;DHT22;1821;50.936;6.854;2023-03-14T04:22:42;9.80;1.00
3614;DHT22;1821;50.936;6.854;2023-03-14T04:23:25;9.60;1.00
3614;DHT22;1821;50.936;6.854;2023-03-14T04:24:08;9.70;1.00
3614;DHT22;1821;50.936;6.854;2023-03-14T04:24:52;9.20;1.00
3614;DHT22;1821;50.936;6.854;2023-03-14T04:25:34;9.70;1.00
3614;DHT22;1821;50.936;6.854;2023-03-14T04:27:40;9.20;1.00
3614;DHT22;1821;50.936;6.854;2023-03-14T04:29:04;9.40;3.90
3614;DHT22;1821;50.936;6.854;2023-03-14T04:29:51;9.30;14.40
3614;DHT22;1821;50.936;6.854;2023-03-14T04:30:33;9.40;17.10
3614;DHT22;1821;50.936;6.854;2023-03-14T04:31:19;9.20;21.10
3614;DHT22;1821;50.936;6.854;2023-03-14T04:32:04;9.60;28.80
3614;DHT22;1821;50.936;6.854;2023-03-14T04:32:49;9.60;36.40
3614;DHT22;1821;50.936;6.854;2023-03-14T04:33:31;9.80;28.70
3614;DHT22;1821;50.936;6.854;2023-03-14T04:34:13;9.80;42.10
3614;DHT22;1821;50.936;6.854;2023-03-14T04:35:39;9.60;67.00
3614;DHT22;1821;50.936;6.854;2023-03-14T04:36:24;9.50;56.20
3614;DHT22;1821;50.936;6.854;2023-03-14T04:37:48;9.20;67.50
3614;DHT22;1821;50.936;6.854;2023-03-14T04:38:30;9.20;83.90
3614;DHT22;1821;50.936;6.854;2023-03-14T04:39:12;9.70;74.10
3614;DHT22;1821;50.936;6.854;2023-03-14T04:39:54;9.30;76.00
3614;DHT22;1821;50.936;6.854;2023-03-14T04:40:40;9.30;72.00
3614;DHT22;1821;50.936;6.854;2023-03-14T04:41:22;9.40;70.20
3614;DHT22;1821;50.936;6.854;2023-03-14T04:42:04;9.70;70.60
3614;DHT22;1821;50.936;6.854;2023-03-14T04:42:47;9.60;77.50
3614;DHT22;1821;50.936;6.854;2023-03-14T04:43:29;9.50;55.50
3614;DHT22;1821;50.936;6.854;2023-03-14T04:44:14;9.50;47.40
3614;DHT22;1821;50.936;6.854;2023-03-14T04:44:56;9.60;55.70
3614;DHT22;1821;50.936;6.854;2023-03-14T04:45:41;9.20;61.20
3614;DHT22;1821;50.936;6.854;2023-03-14T04:46:23;9.40;59.80
3614;DHT22;1821;50.936;6.854;2023-03-14T04:47:47;9.50;85.00
3614;DHT22;1821;50.936;6.854;2023-03-14T04:48:32;9.40;80.80
3614;DHT22;1821;50.936;6.854;2023-03-14T04:49:14;9.40;92.90
3614;DHT22;1821;50.936;6.854;2023-03-14T04:49:55;9.50;78.10
3614;DHT22;1821;50.936;6.854;2023-03-14T04:51:22;9.60;77.90
3614;DHT22;1821;50.936;6.854;2023-03-14T04:52:05;9.50;75.90
3614;DHT22;1821;50.936;6.854;2023-03-14T04:52:49;9.80;77.10
3614;DHT22;1821;50.936;6.854;2023-03-14T04:53:31;9.40;80.20
3614;DHT22;1821;50.936;6.854;2023-03-14T04:55:38;9.20;93.10
3614;DHT22;1821;50.936;6.854;2023-03-14T04:56:20;9.70;96.70
3614;DHT22;1821;50.936;6.854;2023-03-14T04:57:02;9.50;98.80
3614;DHT22;1821;50.936;6.854;2023-03-14T04:57:44;9.20;96.00
3614;DHT22;1821;50.936;6.854;2023-03-14T04:58:26;9.60;92.80
3614;DHT22;1821;50.936;6.854;2023-03-14T04:59:08;9.40;86.40
3614;DHT22;1821;50.936;6.854;2023-03-14T04:59:52;9.60;81.80
3614;DHT22;1821;50.936;6.854;2023-03-14T05:00:34;9.40;81.50
3614;DHT22;1821;50.936;6.854;2023-03-14T05:01:19;9.60;82.00
3614;DHT22;1821;50.936;6.854;2023-03-14T05:02:01;9.40;82.60
3614;DHT22;1821;50.936;6.854;2023-03-14T05:02:43;9.40;84.60
3614;DHT22;1821;50.936;6.854;2023-03-14T05:03:25;9.60;92.10
3614;DHT22;1821;50.936;6.854;2023-03-14T05:04:07;9.50;85.10
3614;DHT22;1821;50.936;6.854;2023-03-14T05:05:31;9.30;95.20
3614;DHT22;1821;50.936;6.854;2023-03-14T05:06:13;9.50;99.90
3614;DHT22;1821;50.936;6.854;2023-03-14T05:06:55;9.50;98.80
3614;DHT22;1821;50.936;6.854;2023-03-14T05:07:37;9.50;99.70
3614;DHT22;1821;50.936;6.854;2023-03-14T05:08:19;9.70;99.90
3614;DHT22;1821;50.936;6.854;2023-03-14T05:09:01;9.50;99.90
3614;DHT22;1821;50.936;6.854;2023-03-14T05:10:25;9.70;91.10
3614;DHT22;1821;50.936;6.854;2023-03-14T05:11:10;9.20;87.60
3614;DHT22;1821;50.936;6.854;2023-03-14T05:12:35;9.50;90.60
3614;DHT22;1821;50.936;6.854;2023-03-14T05:13:19;9.50;85.70
3614;DHT22;1821;50.936;6.854;2023-03-14T05:14:43;9.70;92.90
3614;DHT22;1821;50.936;6.854;2023-03-14T05:15:25;9.50;90.40
3614;DHT22;1821;50.936;6.854;2023-03-14T05:16:09;9.50;86.60
3614;DHT22;1821;50.936;6.854;2023-03-14T05:17:34;9.50;40.60
3614;DHT22;1821;50.936;6.854;2023-03-14T05:18:17;9.40;37.30
3614;DHT22;1821;50.936;6.854;2023-03-14T05:18:59;9.50;25.90
3614;DHT22;1821;50.936;6.854;2023-03-14T05:19:45;9.40;10.20
3614;DHT22;1821;50.936;6.854;2023-03-14T05:20:30;9.50;1.00
3614;DHT22;1821;50.936;6.854;2023-03-14T05:21:12;9.50;1.00
3614;DHT22;1821;50.936;6.854;2023-03-14T05:21:55;9.60;1.00
3614;DHT22;1821;50.936;6.854;2023-03-14T05:22:37;9.10;1.00
3614;DHT22;1821;50.936;6.854;2023-03-14T05:23:19;9.20;1.00
3614;DHT22;1821;50.936;6.854;2023-03-14T05:24:03;9.60;1.00
3614;DHT22;1821;50.936;6.854;2023-03-14T05:24:45;9.20;1.00
3614;DHT22;1821;50.936;6.854;2023-03-14T05:25:27;9.70;1.00
3614;DHT22;1821;50.936;6.854;2023-03-14T05:26:13;9.80;1.00
3614;DHT22;1821;50.936;6.854;2023-03-14T05:26:55;9.60;1.00
3614;DHT22;1821;50.936;6.854;2023-03-14T05:29:02;9.70;1.00
3614;DHT22;1821;50.936;6.854;2023-03-14T05:29:47;9.80;1.00
3614;DHT22;1821;50.936;6.854;2023-03-14T05:31:15;9.30;1.00
3614;DHT22;1821;50.936;6.854;2023-03-14T05:32:39;9.40;1.00
3614;DHT22;1821;50.936;6.854;2023-03-14T05:34:04;9.50;1.00
3614;DHT22;1821;50.936;6.854;2023-03-14T05:34:48;9.40;1.00
3614;DHT22;1821;50.936;6.854;2023-03-14T05:35:30;9.50;1.00
3614;DHT22;1821;50.936;6.854;2023-03-14T05:36:12;9.80;1.00
3614;DHT22;1821;50.936;6.854;2023-03-14T05:36:54;9.60;1.00
3614;DHT22;1821;50.936;6.854;2023-03-14T05:37:37;9.20;1.00
3614;DHT22;1821;50.936;6.854;2023-03-14T05:38:19;9.70;1.00
3614;DHT22;1821;50.936;6.854;2023-03-14T05:39:03;9.50;1.00
3614;DHT22;1821;50.936;6.854;2023-03-14T05:39:45;9.90;1.00
3614;DHT22;1821;50.936;6.854;2023-03-14T05:41:09;9.20;1.00
3614;DHT22;1821;50.936;6.854;2023-03-14T05:41:51;9.70;1.00
3614;DHT22;1821;50.936;6.854;2023-03-14T05:43:17;9.70;1.00
3614;DHT22;1821;50.936;6.854;2023-03-14T05:43:59;9.20;1.00
3614;DHT22;1821;50.936;6.854;2023-03-14T05:44:41;9.20;1.00
3614;DHT22;1821;50.936;6.854;2023-03-14T05:45:23;9.40;1.00
3614;DHT22;1821;50.936;6.854;2023-03-14T05:46:05;9.70;1.00
3614;DHT22;1821;50.936;6.854;2023-03-14T05:47:32;9.40;99.90
3614;DHT22;1821;50.936;6.854;2023-03-14T05:48:14;9.70;99.90
3614;DHT22;1821;50.936;6.854;2023-03-14T05:48:59;9.50;99.90
3614;DHT22;1821;50.936;6.854;2023-03-14T05:49:41;9.50;99.90
3614;DHT22;1821;50.936;6.854;2023-03-14T05:50:23;9.70;99.90
3614;DHT22;1821;50.936;6.854;2023-03-14T05:52:29;9.40;99.90
3614;DHT22;1821;50.936;6.854;2023-03-14T05:54:41;9.50;99.90
3614;DHT22;1821;50.936;6.854;2023-03-14T05:55:23;9.80;99.90
3614;DHT22;1821;50.936;6.854;2023-03-14T05:56:05;9.60;99.90
3614;DHT22;1821;50.936;6.854;2023-03-14T05:57:29;9.80;99.90
3614;DHT22;1821;50.936;6.854;2023-03-14T05:58:11;9.40;99.90
3614;DHT22;1821;50.936;6.854;2023-03-14T05:58:53;9.90;99.90
3614;DHT22;1821;50.936;6.854;2023-03-14T05:59:35;9.50;99.90
3614;DHT22;1821;50.936;6.854;2023-03-14T06:00:17;9.30;99.90
3614;DHT22;1821;50.936;6.854;2023-03-14T06:01:03;9.80;99.90
3614;DHT22;1821;50.936;6.854;2023-03-14T06:01:46;9.60;99.90
3614;DHT22;1821;50.936;6.854;2023-03-14T06:02:28;9.40;99.90
3614;DHT22;1821;50.936;6.854;2023-03-14T06:03:10;9.70;99.90
3614;DHT22;1821;50.936;6.854;2023-03-14T06:03:52;9.60;99.90